sensor_id;sensor_type;location;lat;lon;timestamp;P1;durP1;ratioP1;P2;durP2;ratioP2
40787;SDS011;26497;52.494;7.546;2023-01-01T00:02:08;17.20;;;3.50;;
40787;SDS011;26497;52.494;7.546;2023-01-01T00:04:35;15.10;;;4.53;;
40787;SDS011;26497;52.494;7.546;2023-01-01T00:07:02;13.15;;;3.53;;
40787;SDS011;26497;52.494;7.546;2023-01-01T00:09:29;7.72;;;3.25;;
40787;SDS011;26497;52.494;7.546;2023-01-01T00:12:15;6.50;;;3.15;;
40787;SDS011;26497;52.494;7.546;2023-01-01T00:14:42;13.48;;;4.40;;
40787;SDS011;26497;52.494;7.546;2023-01-01T00:17:09;8.23;;;3.35;;
40787;SDS011;26497;52.494;7.546;2023-01-01T00:19:36;17.25;;;3.75;;
40787;SDS011;26497;52.494;7.546;2023-01-01T00:22:03;11.13;;;4.10;;
40787;SDS011;26497;52.494;7.546;2023-01-01T00:24:30;13.07;;;2.75;;
40787;SDS011;26497;52.494;7.546;2023-01-01T00:26:57;11.15;;;3.70;;
40787;SDS011;26497;52.494;7.546;2023-01-01T00:29:26;10.95;;;3.88;;
40787;SDS011;26497;52.494;7.546;2023-01-01T00:31:52;14.05;;;3.55;;
40787;SDS011;26497;52.494;7.546;2023-01-01T00:34:19;22.17;;;4.85;;
40787;SDS011;26497;52.494;7.546;2023-01-01T00:36:46;7.70;;;3.83;;
40787;SDS011;26497;52.494;7.546;2023-01-01T00:39:13;21.42;;;4.35;;
40787;SDS011;26497;52.494;7.546;2023-01-01T00:41:41;11.18;;;3.53;;
40787;SDS011;26497;52.494;7.546;2023-01-01T00:44:08;10.90;;;3.08;;
40787;SDS011;26497;52.494;7.546;2023-01-01T00:46:36;8.48;;;4.22;;
40787;SDS011;26497;52.494;7.546;2023-01-01T00:49:03;9.10;;;3.20;;
40787;SDS011;26497;52.494;7.546;2023-01-01T00:51:30;16.80;;;3.47;;
40787;SDS011;26497;52.494;7.546;2023-01-01T00:53:57;7.63;;;2.45;;
40787;SDS011;26497;52.494;7.546;2023-01-01T00:56:24;14.50;;;3.63;;
40787;SDS011;26497;52.494;7.546;2023-01-01T00:58:51;17.65;;;3.75;;
40787;SDS011;26497;52.494;7.546;2023-01-01T01:01:18;10.30;;;2.72;;
40787;SDS011;26497;52.494;7.546;2023-01-01T01:03:46;16.38;;;3.60;;
40787;SDS011;26497;52.494;7.546;2023-01-01T01:06:14;7.13;;;2.75;;
40787;SDS011;26497;52.494;7.546;2023-01-01T01:08:42;10.63;;;3.08;;
40787;SDS011;26497;52.494;7.546;2023-01-01T01:11:12;13.30;;;3.05;;
40787;SDS011;26497;52.494;7.546;2023-01-01T01:13:42;14.15;;;3.45;;
40787;SDS011;26497;52.494;7.546;2023-01-01T01:16:11;12.50;;;3.60;;
40787;SDS011;26497;52.494;7.546;2023-01-01T01:18:41;11.75;;;3.92;;
40787;SDS011;26497;52.494;7.546;2023-01-01T01:21:10;9.85;;;2.95;;
40787;SDS011;26497;52.494;7.546;2023-01-01T01:23:40;24.30;;;3.95;;
40787;SDS011;26497;52.494;7.546;2023-01-01T01:26:08;10.48;;;3.67;;
40787;SDS011;26497;52.494;7.546;2023-01-01T01:28:37;9.43;;;3.22;;
40787;SDS011;26497;52.494;7.546;2023-01-01T01:31:05;13.68;;;4.38;;
40787;SDS011;26497;52.494;7.546;2023-01-01T01:33:32;8.80;;;2.78;;
40787;SDS011;26497;52.494;7.546;2023-01-01T01:36:00;13.52;;;4.13;;
40787;SDS011;26497;52.494;7.546;2023-01-01T01:38:28;10.43;;;4.25;;
40787;SDS011;26497;52.494;7.546;2023-01-01T01:40:56;9.63;;;4.43;;
40787;SDS011;26497;52.494;7.546;2023-01-01T01:43:23;19.65;;;4.85;;
40787;SDS011;26497;52.494;7.546;2023-01-01T01:46:18;14.27;;;4.55;;
40787;SDS011;26497;52.494;7.546;2023-01-01T01:48:49;15.40;;;5.05;;
40787;SDS011;26497;52.494;7.546;2023-01-01T01:51:21;12.75;;;4.80;;
40787;SDS011;26497;52.494;7.546;2023-01-01T01:53:56;10.60;;;4.80;;
40787;SDS011;26497;52.494;7.546;2023-01-01T01:56:29;13.77;;;4.40;;
40787;SDS011;26497;52.494;7.546;2023-01-01T02:01:37;17.58;;;5.25;;
40787;SDS011;26497;52.494;7.546;2023-01-01T02:04:04;11.93;;;4.35;;
40787;SDS011;26497;52.494;7.546;2023-01-01T02:06:32;10.38;;;4.75;;
40787;SDS011;26497;52.494;7.546;2023-01-01T02:09:02;12.50;;;4.47;;
40787;SDS011;26497;52.494;7.546;2023-01-01T02:11:31;17.25;;;4.63;;
40787;SDS011;26497;52.494;7.546;2023-01-01T02:13:59;12.40;;;4.38;;
40787;SDS011;26497;52.494;7.546;2023-01-01T02:16:30;14.43;;;4.63;;
40787;SDS011;26497;52.494;7.546;2023-01-01T02:19:06;13.57;;;4.00;;
40787;SDS011;26497;52.494;7.546;2023-01-01T02:21:46;11.75;;;3.58;;
40787;SDS011;26497;52.494;7.546;2023-01-01T02:24:42;10.57;;;4.10;;
40787;SDS011;26497;52.494;7.546;2023-01-01T02:27:24;16.70;;;3.75;;
40787;SDS011;26497;52.494;7.546;2023-01-01T02:30:01;11.02;;;3.45;;
40787;SDS011;26497;52.494;7.546;2023-01-01T02:32:31;13.82;;;2.85;;
40787;SDS011;26497;52.494;7.546;2023-01-01T02:35:05;8.15;;;3.75;;
40787;SDS011;26497;52.494;7.546;2023-01-01T02:38:02;7.93;;;2.97;;
40787;SDS011;26497;52.494;7.546;2023-01-01T02:40:33;13.90;;;2.88;;
40787;SDS011;26497;52.494;7.546;2023-01-01T02:43:06;5.38;;;2.90;;
40787;SDS011;26497;52.494;7.546;2023-01-01T02:45:34;9.65;;;4.22;;
40787;SDS011;26497;52.494;7.546;2023-01-01T02:48:02;8.48;;;3.17;;
40787;SDS011;26497;52.494;7.546;2023-01-01T02:50:30;11.85;;;3.83;;
40787;SDS011;26497;52.494;7.546;2023-01-01T02:53:05;6.22;;;3.10;;
40787;SDS011;26497;52.494;7.546;2023-01-01T02:55:46;16.73;;;3.92;;
40787;SDS011;26497;52.494;7.546;2023-01-01T02:58:26;18.08;;;4.95;;
40787;SDS011;26497;52.494;7.546;2023-01-01T03:01:22;8.73;;;3.42;;
40787;SDS011;26497;52.494;7.546;2023-01-01T03:03:59;10.43;;;3.25;;
40787;SDS011;26497;52.494;7.546;2023-01-01T03:06:36;15.55;;;3.88;;
40787;SDS011;26497;52.494;7.546;2023-01-01T03:09:11;12.27;;;3.00;;
40787;SDS011;26497;52.494;7.546;2023-01-01T03:11:47;17.52;;;3.47;;
40787;SDS011;26497;52.494;7.546;2023-01-01T03:14:23;15.38;;;3.03;;
40787;SDS011;26497;52.494;7.546;2023-01-01T03:17:00;19.80;;;3.15;;
40787;SDS011;26497;52.494;7.546;2023-01-01T03:19:32;9.85;;;2.63;;
40787;SDS011;26497;52.494;7.546;2023-01-01T03:22:03;4.15;;;2.05;;
40787;SDS011;26497;52.494;7.546;2023-01-01T03:24:35;9.57;;;2.97;;
40787;SDS011;26497;52.494;7.546;2023-01-01T03:27:10;5.15;;;2.42;;
40787;SDS011;26497;52.494;7.546;2023-01-01T03:29:43;5.28;;;1.73;;
40787;SDS011;26497;52.494;7.546;2023-01-01T03:32:14;12.07;;;1.88;;
40787;SDS011;26497;52.494;7.546;2023-01-01T03:34:48;10.23;;;2.38;;
40787;SDS011;26497;52.494;7.546;2023-01-01T03:37:20;10.05;;;2.80;;
40787;SDS011;26497;52.494;7.546;2023-01-01T03:39:52;7.95;;;2.40;;
40787;SDS011;26497;52.494;7.546;2023-01-01T03:42:25;8.90;;;2.72;;
40787;SDS011;26497;52.494;7.546;2023-01-01T03:45:00;15.68;;;2.60;;
40787;SDS011;26497;52.494;7.546;2023-01-01T03:47:33;5.97;;;2.08;;
40787;SDS011;26497;52.494;7.546;2023-01-01T03:50:00;9.35;;;2.03;;
40787;SDS011;26497;52.494;7.546;2023-01-01T03:52:30;5.55;;;1.67;;
40787;SDS011;26497;52.494;7.546;2023-01-01T03:55:11;16.85;;;2.20;;
40787;SDS011;26497;52.494;7.546;2023-01-01T03:57:44;11.48;;;1.67;;
40787;SDS011;26497;52.494;7.546;2023-01-01T04:00:21;5.35;;;1.20;;
40787;SDS011;26497;52.494;7.546;2023-01-01T04:02:54;9.38;;;1.60;;
40787;SDS011;26497;52.494;7.546;2023-01-01T04:05:25;6.20;;;1.95;;
40787;SDS011;26497;52.494;7.546;2023-01-01T04:07:53;4.25;;;1.45;;
40787;SDS011;26497;52.494;7.546;2023-01-01T04:10:21;9.00;;;1.60;;
40787;SDS011;26497;52.494;7.546;2023-01-01T04:12:50;5.65;;;2.13;;
40787;SDS011;26497;52.494;7.546;2023-01-01T04:15:20;8.27;;;1.60;;
40787;SDS011;26497;52.494;7.546;2023-01-01T04:17:50;10.75;;;1.98;;
40787;SDS011;26497;52.494;7.546;2023-01-01T04:20:19;15.10;;;1.55;;
40787;SDS011;26497;52.494;7.546;2023-01-01T04:22:47;13.30;;;2.17;;
40787;SDS011;26497;52.494;7.546;2023-01-01T04:25:14;5.47;;;1.02;;
40787;SDS011;26497;52.494;7.546;2023-01-01T04:27:42;6.85;;;1.92;;
40787;SDS011;26497;52.494;7.546;2023-01-01T04:30:11;13.20;;;1.48;;
40787;SDS011;26497;52.494;7.546;2023-01-01T04:32:39;5.15;;;1.20;;
40787;SDS011;26497;52.494;7.546;2023-01-01T04:35:06;11.45;;;1.25;;
40787;SDS011;26497;52.494;7.546;2023-01-01T04:37:38;5.85;;;1.40;;
40787;SDS011;26497;52.494;7.546;2023-01-01T04:40:07;3.78;;;1.48;;
40787;SDS011;26497;52.494;7.546;2023-01-01T04:42:36;4.75;;;0.80;;
40787;SDS011;26497;52.494;7.546;2023-01-01T04:45:03;7.75;;;1.25;;
40787;SDS011;26497;52.494;7.546;2023-01-01T04:47:31;6.57;;;1.25;;
40787;SDS011;26497;52.494;7.546;2023-01-01T04:49:58;4.60;;;1.42;;
40787;SDS011;26497;52.494;7.546;2023-01-01T04:52:25;6.88;;;1.58;;
40787;SDS011;26497;52.494;7.546;2023-01-01T04:54:54;6.70;;;1.25;;
40787;SDS011;26497;52.494;7.546;2023-01-01T04:57:21;6.70;;;0.77;;
40787;SDS011;26497;52.494;7.546;2023-01-01T04:59:48;1.90;;;1.50;;
40787;SDS011;26497;52.494;7.546;2023-01-01T05:02:15;5.90;;;1.23;;
40787;SDS011;26497;52.494;7.546;2023-01-01T05:04:42;8.77;;;1.00;;
40787;SDS011;26497;52.494;7.546;2023-01-01T05:07:09;9.45;;;1.63;;
40787;SDS011;26497;52.494;7.546;2023-01-01T05:09:36;5.07;;;1.30;;
40787;SDS011;26497;52.494;7.546;2023-01-01T05:12:04;12.05;;;1.88;;
40787;SDS011;26497;52.494;7.546;2023-01-01T05:14:32;4.05;;;1.23;;
40787;SDS011;26497;52.494;7.546;2023-01-01T05:16:59;11.27;;;1.65;;
40787;SDS011;26497;52.494;7.546;2023-01-01T05:19:26;3.78;;;0.98;;
40787;SDS011;26497;52.494;7.546;2023-01-01T05:21:53;10.05;;;1.05;;
40787;SDS011;26497;52.494;7.546;2023-01-01T05:24:20;7.55;;;0.75;;
40787;SDS011;26497;52.494;7.546;2023-01-01T05:26:47;14.55;;;1.95;;
40787;SDS011;26497;52.494;7.546;2023-01-01T05:29:15;5.53;;;1.35;;
40787;SDS011;26497;52.494;7.546;2023-01-01T05:31:44;6.75;;;1.55;;
40787;SDS011;26497;52.494;7.546;2023-01-01T05:34:11;8.63;;;1.25;;
40787;SDS011;26497;52.494;7.546;2023-01-01T05:36:38;13.18;;;2.20;;
40787;SDS011;26497;52.494;7.546;2023-01-01T05:39:05;2.25;;;1.15;;
40787;SDS011;26497;52.494;7.546;2023-01-01T05:41:34;4.68;;;0.88;;
40787;SDS011;26497;52.494;7.546;2023-01-01T05:44:01;9.18;;;1.08;;
40787;SDS011;26497;52.494;7.546;2023-01-01T05:46:31;12.75;;;2.28;;
40787;SDS011;26497;52.494;7.546;2023-01-01T05:48:59;6.05;;;0.93;;
40787;SDS011;26497;52.494;7.546;2023-01-01T05:51:26;2.60;;;0.50;;
40787;SDS011;26497;52.494;7.546;2023-01-01T05:53:55;6.65;;;0.80;;
40787;SDS011;26497;52.494;7.546;2023-01-01T05:56:23;6.05;;;0.60;;
40787;SDS011;26497;52.494;7.546;2023-01-01T05:58:51;7.38;;;1.48;;
40787;SDS011;26497;52.494;7.546;2023-01-01T06:01:19;5.75;;;0.93;;
40787;SDS011;26497;52.494;7.546;2023-01-01T06:03:49;6.78;;;1.10;;
40787;SDS011;26497;52.494;7.546;2023-01-01T06:06:18;14.13;;;0.88;;
40787;SDS011;26497;52.494;7.546;2023-01-01T06:08:48;9.35;;;1.45;;
40787;SDS011;26497;52.494;7.546;2023-01-01T06:11:16;12.32;;;1.25;;
40787;SDS011;26497;52.494;7.546;2023-01-01T06:13:44;7.88;;;0.68;;
40787;SDS011;26497;52.494;7.546;2023-01-01T06:16:11;18.00;;;1.60;;
40787;SDS011;26497;52.494;7.546;2023-01-01T06:18:38;2.92;;;1.33;;
40787;SDS011;26497;52.494;7.546;2023-01-01T06:21:07;10.02;;;1.25;;
40787;SDS011;26497;52.494;7.546;2023-01-01T06:23:37;4.13;;;0.93;;
40787;SDS011;26497;52.494;7.546;2023-01-01T06:26:05;2.67;;;0.85;;
40787;SDS011;26497;52.494;7.546;2023-01-01T06:28:34;12.80;;;1.42;;
40787;SDS011;26497;52.494;7.546;2023-01-01T06:31:02;4.72;;;1.02;;
40787;SDS011;26497;52.494;7.546;2023-01-01T06:33:31;4.00;;;1.35;;
40787;SDS011;26497;52.494;7.546;2023-01-01T06:36:00;10.15;;;1.13;;
40787;SDS011;26497;52.494;7.546;2023-01-01T06:38:30;6.68;;;1.35;;
40787;SDS011;26497;52.494;7.546;2023-01-01T06:40:58;9.32;;;1.13;;
40787;SDS011;26497;52.494;7.546;2023-01-01T06:43:28;7.68;;;1.33;;
40787;SDS011;26497;52.494;7.546;2023-01-01T06:45:58;9.98;;;1.35;;
40787;SDS011;26497;52.494;7.546;2023-01-01T06:48:27;5.75;;;1.15;;
40787;SDS011;26497;52.494;7.546;2023-01-01T06:50:55;8.55;;;1.33;;
40787;SDS011;26497;52.494;7.546;2023-01-01T06:53:23;8.30;;;2.60;;
40787;SDS011;26497;52.494;7.546;2023-01-01T06:55:52;10.25;;;1.70;;
40787;SDS011;26497;52.494;7.546;2023-01-01T06:58:19;4.50;;;0.70;;
40787;SDS011;26497;52.494;7.546;2023-01-01T07:00:45;2.45;;;0.70;;
40787;SDS011;26497;52.494;7.546;2023-01-01T07:03:12;6.20;;;1.88;;
40787;SDS011;26497;52.494;7.546;2023-01-01T07:05:39;7.72;;;1.02;;
40787;SDS011;26497;52.494;7.546;2023-01-01T07:08:06;8.48;;;0.90;;
40787;SDS011;26497;52.494;7.546;2023-01-01T07:10:33;2.75;;;1.00;;
40787;SDS011;26497;52.494;7.546;2023-01-01T07:13:02;3.90;;;0.80;;
40787;SDS011;26497;52.494;7.546;2023-01-01T07:15:29;10.73;;;1.42;;
40787;SDS011;26497;52.494;7.546;2023-01-01T07:17:56;12.27;;;3.08;;
40787;SDS011;26497;52.494;7.546;2023-01-01T07:20:23;10.15;;;1.35;;
40787;SDS011;26497;52.494;7.546;2023-01-01T07:22:50;7.00;;;1.25;;
40787;SDS011;26497;52.494;7.546;2023-01-01T07:25:17;10.90;;;1.40;;
40787;SDS011;26497;52.494;7.546;2023-01-01T07:27:44;8.40;;;1.20;;
40787;SDS011;26497;52.494;7.546;2023-01-01T07:30:12;6.93;;;1.60;;
40787;SDS011;26497;52.494;7.546;2023-01-01T07:32:39;4.65;;;0.93;;
40787;SDS011;26497;52.494;7.546;2023-01-01T07:35:06;14.00;;;1.38;;
40787;SDS011;26497;52.494;7.546;2023-01-01T07:37:34;10.40;;;1.30;;
40787;SDS011;26497;52.494;7.546;2023-01-01T07:40:01;8.82;;;1.23;;
40787;SDS011;26497;52.494;7.546;2023-01-01T07:42:28;8.40;;;1.27;;
40787;SDS011;26497;52.494;7.546;2023-01-01T07:44:55;5.30;;;1.40;;
40787;SDS011;26497;52.494;7.546;2023-01-01T07:47:24;5.50;;;1.52;;
40787;SDS011;26497;52.494;7.546;2023-01-01T07:49:52;3.22;;;1.20;;
40787;SDS011;26497;52.494;7.546;2023-01-01T07:52:19;5.03;;;1.00;;
40787;SDS011;26497;52.494;7.546;2023-01-01T07:54:46;3.08;;;0.93;;
40787;SDS011;26497;52.494;7.546;2023-01-01T07:57:13;6.80;;;1.35;;
40787;SDS011;26497;52.494;7.546;2023-01-01T07:59:40;5.05;;;1.23;;
40787;SDS011;26497;52.494;7.546;2023-01-01T08:02:08;7.05;;;1.55;;
40787;SDS011;26497;52.494;7.546;2023-01-01T08:04:38;10.85;;;0.80;;
40787;SDS011;26497;52.494;7.546;2023-01-01T08:07:05;6.47;;;0.93;;
40787;SDS011;26497;52.494;7.546;2023-01-01T08:09:32;2.53;;;0.73;;
40787;SDS011;26497;52.494;7.546;2023-01-01T08:11:59;8.73;;;0.70;;
40787;SDS011;26497;52.494;7.546;2023-01-01T08:14:26;4.00;;;0.52;;
40787;SDS011;26497;52.494;7.546;2023-01-01T08:16:53;3.40;;;0.90;;
40787;SDS011;26497;52.494;7.546;2023-01-01T08:19:20;8.18;;;1.00;;
40787;SDS011;26497;52.494;7.546;2023-01-01T08:21:48;4.47;;;0.80;;
40787;SDS011;26497;52.494;7.546;2023-01-01T08:24:15;3.03;;;0.65;;
40787;SDS011;26497;52.494;7.546;2023-01-01T08:26:42;8.75;;;1.00;;
40787;SDS011;26497;52.494;7.546;2023-01-01T08:29:09;3.33;;;0.30;;
40787;SDS011;26497;52.494;7.546;2023-01-01T08:31:37;1.10;;;0.38;;
40787;SDS011;26497;52.494;7.546;2023-01-01T08:34:04;2.20;;;0.30;;
40787;SDS011;26497;52.494;7.546;2023-01-01T08:36:30;1.65;;;0.38;;
40787;SDS011;26497;52.494;7.546;2023-01-01T08:38:59;3.78;;;0.30;;
40787;SDS011;26497;52.494;7.546;2023-01-01T08:41:26;2.00;;;0.20;;
40787;SDS011;26497;52.494;7.546;2023-01-01T08:43:53;4.35;;;0.52;;
40787;SDS011;26497;52.494;7.546;2023-01-01T08:46:20;1.52;;;0.50;;
40787;SDS011;26497;52.494;7.546;2023-01-01T08:48:47;2.83;;;0.65;;
40787;SDS011;26497;52.494;7.546;2023-01-01T08:51:14;2.10;;;0.17;;
40787;SDS011;26497;52.494;7.546;2023-01-01T08:53:41;1.40;;;0.22;;
40787;SDS011;26497;52.494;7.546;2023-01-01T08:56:10;2.42;;;0.20;;
40787;SDS011;26497;52.494;7.546;2023-01-01T08:58:40;1.05;;;0.28;;
40787;SDS011;26497;52.494;7.546;2023-01-01T09:01:08;5.90;;;0.63;;
40787;SDS011;26497;52.494;7.546;2023-01-01T09:03:36;2.03;;;0.25;;
40787;SDS011;26497;52.494;7.546;2023-01-01T09:06:03;2.08;;;0.30;;
40787;SDS011;26497;52.494;7.546;2023-01-01T09:08:31;0.75;;;0.25;;
40787;SDS011;26497;52.494;7.546;2023-01-01T09:10:58;1.92;;;0.30;;
40787;SDS011;26497;52.494;7.546;2023-01-01T09:13:29;1.23;;;0.10;;
40787;SDS011;26497;52.494;7.546;2023-01-01T09:15:56;1.38;;;0.20;;
40787;SDS011;26497;52.494;7.546;2023-01-01T09:18:23;3.63;;;0.50;;
40787;SDS011;26497;52.494;7.546;2023-01-01T09:20:51;5.85;;;0.50;;
40787;SDS011;26497;52.494;7.546;2023-01-01T09:23:18;2.38;;;0.30;;
40787;SDS011;26497;52.494;7.546;2023-01-01T09:25:45;4.65;;;0.17;;
40787;SDS011;26497;52.494;7.546;2023-01-01T09:28:12;1.70;;;0.30;;
40787;SDS011;26497;52.494;7.546;2023-01-01T09:30:41;2.92;;;0.52;;
40787;SDS011;26497;52.494;7.546;2023-01-01T09:33:08;3.22;;;0.50;;
40787;SDS011;26497;52.494;7.546;2023-01-01T09:35:35;4.10;;;0.35;;
40787;SDS011;26497;52.494;7.546;2023-01-01T09:38:02;4.00;;;1.10;;
40787;SDS011;26497;52.494;7.546;2023-01-01T09:40:31;3.70;;;0.35;;
40787;SDS011;26497;52.494;7.546;2023-01-01T09:43:11;4.18;;;0.82;;
40787;SDS011;26497;52.494;7.546;2023-01-01T09:45:55;6.28;;;1.55;;
40787;SDS011;26497;52.494;7.546;2023-01-01T09:48:25;5.28;;;1.30;;
40787;SDS011;26497;52.494;7.546;2023-01-01T09:50:56;5.75;;;0.88;;
40787;SDS011;26497;52.494;7.546;2023-01-01T09:53:25;2.58;;;0.40;;
40787;SDS011;26497;52.494;7.546;2023-01-01T09:55:58;5.65;;;0.68;;
40787;SDS011;26497;52.494;7.546;2023-01-01T09:58:27;3.65;;;0.75;;
40787;SDS011;26497;52.494;7.546;2023-01-01T10:01:01;2.00;;;1.40;;
40787;SDS011;26497;52.494;7.546;2023-01-01T10:03:36;9.32;;;0.50;;
40787;SDS011;26497;52.494;7.546;2023-01-01T10:06:13;2.78;;;0.77;;
40787;SDS011;26497;52.494;7.546;2023-01-01T10:08:52;4.20;;;0.63;;
40787;SDS011;26497;52.494;7.546;2023-01-01T10:11:35;2.45;;;0.50;;
40787;SDS011;26497;52.494;7.546;2023-01-01T10:14:13;6.90;;;0.93;;
40787;SDS011;26497;52.494;7.546;2023-01-01T10:16:49;3.38;;;1.65;;
40787;SDS011;26497;52.494;7.546;2023-01-01T10:19:21;4.13;;;1.42;;
40787;SDS011;26497;52.494;7.546;2023-01-01T10:21:56;4.57;;;1.65;;
40787;SDS011;26497;52.494;7.546;2023-01-01T10:24:33;11.02;;;1.02;;
40787;SDS011;26497;52.494;7.546;2023-01-01T10:27:09;4.60;;;0.98;;
40787;SDS011;26497;52.494;7.546;2023-01-01T10:29:51;6.00;;;1.48;;
40787;SDS011;26497;52.494;7.546;2023-01-01T10:32:20;9.13;;;2.97;;
40787;SDS011;26497;52.494;7.546;2023-01-01T10:34:53;3.47;;;1.08;;
40787;SDS011;26497;52.494;7.546;2023-01-01T10:37:21;7.72;;;1.17;;
40787;SDS011;26497;52.494;7.546;2023-01-01T10:39:49;5.90;;;0.77;;
40787;SDS011;26497;52.494;7.546;2023-01-01T10:42:16;7.07;;;1.45;;
40787;SDS011;26497;52.494;7.546;2023-01-01T10:44:43;5.43;;;1.35;;
40787;SDS011;26497;52.494;7.546;2023-01-01T10:47:18;7.32;;;1.55;;
40787;SDS011;26497;52.494;7.546;2023-01-01T10:49:53;7.95;;;1.50;;
40787;SDS011;26497;52.494;7.546;2023-01-01T10:52:26;6.75;;;1.23;;
40787;SDS011;26497;52.494;7.546;2023-01-01T10:57:31;6.80;;;0.77;;
40787;SDS011;26497;52.494;7.546;2023-01-01T11:00:08;8.32;;;1.35;;
40787;SDS011;26497;52.494;7.546;2023-01-01T11:02:47;5.07;;;1.30;;
40787;SDS011;26497;52.494;7.546;2023-01-01T11:05:36;6.18;;;1.02;;
40787;SDS011;26497;52.494;7.546;2023-01-01T11:08:14;6.35;;;1.42;;
40787;SDS011;26497;52.494;7.546;2023-01-01T11:10:48;7.25;;;1.83;;
40787;SDS011;26497;52.494;7.546;2023-01-01T11:13:17;8.43;;;1.02;;
40787;SDS011;26497;52.494;7.546;2023-01-01T11:15:45;8.57;;;1.02;;
40787;SDS011;26497;52.494;7.546;2023-01-01T11:18:15;7.90;;;1.00;;
40787;SDS011;26497;52.494;7.546;2023-01-01T11:20:49;3.63;;;1.17;;
40787;SDS011;26497;52.494;7.546;2023-01-01T11:26:01;4.60;;;1.20;;
40787;SDS011;26497;52.494;7.546;2023-01-01T11:28:57;8.15;;;1.33;;
40787;SDS011;26497;52.494;7.546;2023-01-01T11:31:27;6.03;;;1.10;;
40787;SDS011;26497;52.494;7.546;2023-01-01T11:34:01;8.25;;;1.77;;
40787;SDS011;26497;52.494;7.546;2023-01-01T11:36:31;10.75;;;1.55;;
40787;SDS011;26497;52.494;7.546;2023-01-01T11:39:16;3.13;;;1.77;;
40787;SDS011;26497;52.494;7.546;2023-01-01T11:41:48;6.95;;;1.52;;
40787;SDS011;26497;52.494;7.546;2023-01-01T11:44:25;5.65;;;2.03;;
40787;SDS011;26497;52.494;7.546;2023-01-01T11:47:00;10.75;;;2.00;;
40787;SDS011;26497;52.494;7.546;2023-01-01T11:49:31;4.97;;;1.85;;
40787;SDS011;26497;52.494;7.546;2023-01-01T11:51:58;5.43;;;1.88;;
40787;SDS011;26497;52.494;7.546;2023-01-01T11:54:28;10.35;;;1.15;;
40787;SDS011;26497;52.494;7.546;2023-01-01T11:57:01;3.33;;;1.80;;
40787;SDS011;26497;52.494;7.546;2023-01-01T11:59:41;7.80;;;1.42;;
40787;SDS011;26497;52.494;7.546;2023-01-01T12:02:13;9.07;;;1.73;;
40787;SDS011;26497;52.494;7.546;2023-01-01T12:04:53;7.03;;;1.50;;
40787;SDS011;26497;52.494;7.546;2023-01-01T12:07:35;8.50;;;2.55;;
40787;SDS011;26497;52.494;7.546;2023-01-01T12:10:05;6.80;;;1.05;;
40787;SDS011;26497;52.494;7.546;2023-01-01T12:12:45;4.55;;;1.75;;
40787;SDS011;26497;52.494;7.546;2023-01-01T12:15:17;4.18;;;2.17;;
40787;SDS011;26497;52.494;7.546;2023-01-01T12:17:53;12.25;;;1.48;;
40787;SDS011;26497;52.494;7.546;2023-01-01T12:20:30;9.55;;;2.70;;
40787;SDS011;26497;52.494;7.546;2023-01-01T12:23:02;12.57;;;1.75;;
40787;SDS011;26497;52.494;7.546;2023-01-01T12:25:31;5.65;;;2.00;;
40787;SDS011;26497;52.494;7.546;2023-01-01T12:28:08;10.48;;;1.85;;
40787;SDS011;26497;52.494;7.546;2023-01-01T12:30:49;6.75;;;2.03;;
40787;SDS011;26497;52.494;7.546;2023-01-01T12:36:37;13.40;;;2.10;;
40787;SDS011;26497;52.494;7.546;2023-01-01T12:42:48;6.15;;;1.33;;
40787;SDS011;26497;52.494;7.546;2023-01-01T12:45:31;10.57;;;1.50;;
40787;SDS011;26497;52.494;7.546;2023-01-01T12:48:57;2.80;;;1.40;;
40787;SDS011;26497;52.494;7.546;2023-01-01T12:51:44;5.35;;;1.50;;
40787;SDS011;26497;52.494;7.546;2023-01-01T12:54:32;9.05;;;1.42;;
40787;SDS011;26497;52.494;7.546;2023-01-01T12:57:25;9.57;;;1.50;;
40787;SDS011;26497;52.494;7.546;2023-01-01T12:59:57;9.57;;;2.60;;
40787;SDS011;26497;52.494;7.546;2023-01-01T13:02:29;11.07;;;1.83;;
40787;SDS011;26497;52.494;7.546;2023-01-01T13:05:02;11.38;;;1.70;;
40787;SDS011;26497;52.494;7.546;2023-01-01T13:07:40;9.10;;;1.38;;
40787;SDS011;26497;52.494;7.546;2023-01-01T13:10:16;9.55;;;2.38;;
40787;SDS011;26497;52.494;7.546;2023-01-01T13:12:50;12.20;;;3.13;;
40787;SDS011;26497;52.494;7.546;2023-01-01T13:18:18;4.95;;;1.73;;
40787;SDS011;26497;52.494;7.546;2023-01-01T13:21:02;12.10;;;1.98;;
40787;SDS011;26497;52.494;7.546;2023-01-01T13:23:45;4.75;;;1.70;;
40787;SDS011;26497;52.494;7.546;2023-01-01T13:26:33;7.30;;;1.25;;
40787;SDS011;26497;52.494;7.546;2023-01-01T13:31:59;9.48;;;2.08;;
40787;SDS011;26497;52.494;7.546;2023-01-01T13:34:35;14.48;;;2.40;;
40787;SDS011;26497;52.494;7.546;2023-01-01T13:37:31;4.22;;;1.60;;
40787;SDS011;26497;52.494;7.546;2023-01-01T13:43:27;3.92;;;2.10;;
40787;SDS011;26497;52.494;7.546;2023-01-01T13:45:56;7.85;;;2.55;;
40787;SDS011;26497;52.494;7.546;2023-01-01T14:01:51;5.28;;;1.70;;
40787;SDS011;26497;52.494;7.546;2023-01-01T14:04:35;10.57;;;1.90;;
40787;SDS011;26497;52.494;7.546;2023-01-01T14:07:11;14.05;;;3.15;;
40787;SDS011;26497;52.494;7.546;2023-01-01T14:10:15;14.48;;;3.05;;
40787;SDS011;26497;52.494;7.546;2023-01-01T14:12:46;7.63;;;2.65;;
40787;SDS011;26497;52.494;7.546;2023-01-01T14:15:14;12.65;;;3.53;;
40787;SDS011;26497;52.494;7.546;2023-01-01T14:17:49;11.25;;;3.17;;
40787;SDS011;26497;52.494;7.546;2023-01-01T14:20:17;12.45;;;3.13;;
40787;SDS011;26497;52.494;7.546;2023-01-01T14:22:47;8.20;;;2.73;;
40787;SDS011;26497;52.494;7.546;2023-01-01T14:25:17;10.25;;;3.33;;
40787;SDS011;26497;52.494;7.546;2023-01-01T14:27:52;11.82;;;2.88;;
40787;SDS011;26497;52.494;7.546;2023-01-01T14:30:20;8.60;;;2.20;;
40787;SDS011;26497;52.494;7.546;2023-01-01T14:32:55;7.35;;;2.33;;
40787;SDS011;26497;52.494;7.546;2023-01-01T14:35:22;16.13;;;3.42;;
40787;SDS011;26497;52.494;7.546;2023-01-01T14:37:50;14.23;;;3.13;;
40787;SDS011;26497;52.494;7.546;2023-01-01T14:40:18;12.90;;;2.70;;
40787;SDS011;26497;52.494;7.546;2023-01-01T14:42:52;9.43;;;3.33;;
40787;SDS011;26497;52.494;7.546;2023-01-01T14:45:34;10.90;;;3.15;;
40787;SDS011;26497;52.494;7.546;2023-01-01T14:48:04;13.05;;;2.00;;
40787;SDS011;26497;52.494;7.546;2023-01-01T14:50:32;9.38;;;1.92;;
40787;SDS011;26497;52.494;7.546;2023-01-01T14:53:01;6.88;;;3.92;;
40787;SDS011;26497;52.494;7.546;2023-01-01T14:55:33;6.75;;;3.10;;
40787;SDS011;26497;52.494;7.546;2023-01-01T14:58:04;12.48;;;3.42;;
40787;SDS011;26497;52.494;7.546;2023-01-01T15:00:35;13.50;;;3.05;;
40787;SDS011;26497;52.494;7.546;2023-01-01T15:03:05;7.47;;;2.97;;
40787;SDS011;26497;52.494;7.546;2023-01-01T15:05:38;10.50;;;2.70;;
40787;SDS011;26497;52.494;7.546;2023-01-01T15:08:06;5.60;;;2.40;;
40787;SDS011;26497;52.494;7.546;2023-01-01T15:10:45;12.18;;;4.25;;
40787;SDS011;26497;52.494;7.546;2023-01-01T15:13:15;8.95;;;1.95;;
40787;SDS011;26497;52.494;7.546;2023-01-01T15:15:45;8.85;;;4.13;;
40787;SDS011;26497;52.494;7.546;2023-01-01T15:18:35;18.95;;;3.92;;
40787;SDS011;26497;52.494;7.546;2023-01-01T15:21:06;18.55;;;2.53;;
40787;SDS011;26497;52.494;7.546;2023-01-01T15:23:44;5.63;;;1.80;;
40787;SDS011;26497;52.494;7.546;2023-01-01T15:26:26;16.17;;;2.05;;
40787;SDS011;26497;52.494;7.546;2023-01-01T15:28:58;6.68;;;1.88;;
40787;SDS011;26497;52.494;7.546;2023-01-01T15:31:33;10.25;;;2.10;;
40787;SDS011;26497;52.494;7.546;2023-01-01T15:34:04;15.45;;;4.10;;
40787;SDS011;26497;52.494;7.546;2023-01-01T15:36:45;10.45;;;4.00;;
40787;SDS011;26497;52.494;7.546;2023-01-01T15:39:12;11.57;;;4.20;;
40787;SDS011;26497;52.494;7.546;2023-01-01T15:41:41;12.93;;;5.28;;
40787;SDS011;26497;52.494;7.546;2023-01-01T15:44:15;10.35;;;2.90;;
40787;SDS011;26497;52.494;7.546;2023-01-01T15:46:46;12.38;;;4.28;;